Time;durP1;ratioP1;P1;durP2;ratioP2;P2;SDS_P1;SDS_P2;PMS_P1;PMS_P2;Temp;Humidity;BMP_temperature;BMP_pressure;BME280_temperature;BME280_humidity;BME280_pressure;Samples;Min_cycle;Max_cycle;Signal;HPM_P1;HPM_P2
2020/12/15 00:01:22;;;;;;;9.90;6.15;;;9.00;95.20;;;;;;5039257;28;20510;-89
2020/12/15 00:03:48;;;;;;;8.77;5.93;;;9.00;95.10;;;;;;5035187;28;20048;-89
2020/12/15 00:06:14;;;;;;;10.77;5.82;;;8.90;95.10;;;;;;5034270;28;20048;-89
2020/12/15 00:08:40;;;;;;;9.45;6.28;;;8.90;95.10;;;;;;5040577;28;20112;-89
2020/12/15 00:11:05;;;;;;;11.48;5.47;;;8.90;95.10;;;;;;5029371;28;20121;-89
2020/12/15 00:13:31;;;;;;;9.63;5.63;;;8.90;95.10;;;;;;5035275;28;20026;-89
2020/12/15 00:15:57;;;;;;;10.02;5.45;;;8.90;95.10;;;;;;5035384;28;20526;-89
2020/12/15 00:18:22;;;;;;;10.68;6.50;;;8.90;95.10;;;;;;5035253;28;20113;-89
2020/12/15 00:20:48;;;;;;;15.75;5.97;;;8.90;95.10;;;;;;5034709;28;20037;-89
2020/12/15 00:23:13;;;;;;;9.45;5.43;;;8.90;95.10;;;;;;5034974;28;20114;-89
2020/12/15 00:25:40;;;;;;;10.13;5.45;;;8.90;95.10;;;;;;5033516;28;20060;-90
2020/12/15 00:28:05;;;;;;;12.25;5.47;;;8.90;95.10;;;;;;5050766;28;20079;-88
2020/12/15 00:30:31;;;;;;;9.82;5.43;;;8.90;95.10;;;;;;5036255;28;20025;-89
2020/12/15 00:32:57;;;;;;;11.43;5.80;;;8.90;95.10;;;;;;5034696;28;20482;-89
2020/12/15 00:35:22;;;;;;;8.52;5.95;;;8.90;95.10;;;;;;5037275;28;20026;-89
2020/12/15 00:37:48;;;;;;;10.10;6.18;;;8.80;95.00;;;;;;5034784;28;20038;-90
2020/12/15 00:40:14;;;;;;;7.18;5.25;;;8.90;95.10;;;;;;5032429;28;20034;-90
2020/12/15 00:42:39;;;;;;;10.15;5.78;;;8.80;95.10;;;;;;5033401;28;20026;-89
2020/12/15 00:45:05;;;;;;;12.43;5.93;;;8.80;95.10;;;;;;5029571;28;20049;-89
2020/12/15 00:47:31;;;;;;;11.98;6.97;;;8.80;95.10;;;;;;5030878;28;20540;-89
2020/12/15 00:49:57;;;;;;;8.75;5.78;;;8.80;95.10;;;;;;5034636;28;20059;-89
2020/12/15 00:52:27;;;;;;;10.93;5.80;;;8.80;95.10;;;;;;5034225;28;20064;-89
2020/12/15 00:54:52;;;;;;;11.13;6.50;;;8.80;95.10;;;;;;5032827;28;20026;-89
2020/12/15 00:57:18;;;;;;;14.98;9.05;;;8.70;95.10;;;;;;5032770;28;20034;-88
2020/12/15 00:59:44;;;;;;;13.13;8.13;;;8.70;95.20;;;;;;5034420;28;20033;-88
2020/12/15 01:02:10;;;;;;;9.57;6.25;;;8.70;95.20;;;;;;5033256;28;20120;-89
2020/12/15 01:04:35;;;;;;;8.82;6.25;;;8.70;95.30;;;;;;5034549;28;20025;-88
2020/12/15 01:07:01;;;;;;;9.50;6.88;;;8.70;95.30;;;;;;5033577;28;20401;-88
2020/12/15 01:09:26;;;;;;;10.27;5.65;;;8.70;95.30;;;;;;5033590;28;20025;-88
2020/12/15 01:11:52;;;;;;;9.38;6.20;;;8.70;95.40;;;;;;5033923;28;20034;-88
2020/12/15 01:14:17;;;;;;;8.77;5.60;;;8.70;95.40;;;;;;5034111;28;20040;-88
2020/12/15 01:16:43;;;;;;;12.45;6.88;;;8.70;95.40;;;;;;5032114;28;20038;-87
2020/12/15 01:19:08;;;;;;;8.45;5.97;;;8.70;95.40;;;;;;5026577;28;20032;-88
2020/12/15 01:21:34;;;;;;;9.48;6.63;;;8.80;95.40;;;;;;5038358;28;20398;-88
2020/12/15 01:24:01;;;;;;;9.27;6.07;;;8.80;95.40;;;;;;5030131;28;20168;-87
2020/12/15 01:26:26;;;;;;;10.50;5.80;;;8.80;95.70;;;;;;5034073;28;20029;-88
2020/12/15 01:28:52;;;;;;;9.35;6.57;;;8.80;95.40;;;;;;5032543;28;20018;-89
2020/12/15 01:31:27;;;;;;;8.70;5.50;;;8.80;95.40;;;;;;5028484;28;20048;-89
2020/12/15 01:33:53;;;;;;;7.60;5.72;;;8.80;95.40;;;;;;5027546;28;20565;-88
2020/12/15 01:36:27;;;;;;;8.80;5.95;;;8.80;95.40;;;;;;5033965;28;20060;-88
2020/12/15 01:38:53;;;;;;;9.35;6.53;;;8.80;95.40;;;;;;5032763;28;20120;-87
2020/12/15 01:41:18;;;;;;;9.63;5.15;;;8.80;95.50;;;;;;5027674;28;20124;-87
2020/12/15 01:43:55;;;;;;;11.63;6.65;;;8.80;95.50;;;;;;5030519;28;20034;-88
2020/12/15 01:46:20;;;;;;;15.02;6.03;;;8.80;95.50;;;;;;5032698;28;20035;-87
2020/12/15 01:48:47;;;;;;;11.68;5.93;;;8.80;95.50;;;;;;5041874;28;20108;-88
2020/12/15 01:51:14;;;;;;;7.85;5.57;;;8.80;95.50;;;;;;5029395;28;20398;-87
2020/12/15 01:53:39;;;;;;;11.95;7.28;;;8.80;95.50;;;;;;5030144;28;20033;-87
2020/12/15 01:56:05;;;;;;;9.95;6.75;;;8.80;95.50;;;;;;5027486;28;20033;-88
2020/12/15 01:58:31;;;;;;;9.35;6.22;;;8.80;95.50;;;;;;5023553;28;20017;-88
2020/12/15 02:00:56;;;;;;;11.57;7.82;;;8.80;95.50;;;;;;5028690;28;20501;-87
2020/12/15 02:03:22;;;;;;;13.32;6.50;;;8.80;95.60;;;;;;5028160;28;20436;-87
2020/12/15 02:05:48;;;;;;;11.75;7.88;;;8.80;95.60;;;;;;5030904;28;20025;-88
2020/12/15 02:08:13;;;;;;;9.25;6.63;;;8.80;95.60;;;;;;5031876;28;20025;-88
2020/12/15 02:10:39;;;;;;;9.18;6.05;;;8.80;95.60;;;;;;5031559;28;20026;-87
2020/12/15 02:13:04;;;;;;;9.48;5.80;;;8.80;95.60;;;;;;5035503;28;20033;-87
2020/12/15 02:15:30;;;;;;;14.20;7.25;;;8.90;95.60;;;;;;5029412;28;20041;-88
2020/12/15 02:17:55;;;;;;;8.65;6.28;;;8.90;95.70;;;;;;5021499;28;20025;-87
2020/12/15 02:20:21;;;;;;;8.98;6.82;;;8.90;95.70;;;;;;5031547;28;20033;-87
2020/12/15 02:22:46;;;;;;;10.02;6.32;;;8.90;95.70;;;;;;5032341;28;20560;-88
2020/12/15 02:25:12;;;;;;;9.20;6.05;;;8.90;95.60;;;;;;5033639;28;20036;-88
2020/12/15 02:27:37;;;;;;;10.73;6.90;;;8.90;95.70;;;;;;5027643;28;20030;-88
2020/12/15 02:30:06;;;;;;;10.02;6.75;;;8.90;95.70;;;;;;5026972;28;20049;-88
2020/12/15 02:32:34;;;;;;;10.35;6.30;;;8.90;95.70;;;;;;5030048;28;20028;-88
2020/12/15 02:34:59;;;;;;;9.48;6.88;;;9.00;95.80;;;;;;5033954;28;20064;-88
2020/12/15 02:37:25;;;;;;;9.68;6.45;;;9.00;95.70;;;;;;5027282;28;20025;-88
2020/12/15 02:39:50;;;;;;;9.20;6.05;;;8.90;95.70;;;;;;5033154;28;20092;-88
2020/12/15 02:42:16;;;;;;;8.35;6.05;;;8.90;95.70;;;;;;5029473;28;20029;-88
2020/12/15 02:44:41;;;;;;;12.20;7.10;;;8.90;95.70;;;;;;5032623;28;20121;-88
2020/12/15 02:47:07;;;;;;;9.73;6.25;;;9.00;95.80;;;;;;5033392;28;20445;-88
2020/12/15 02:49:32;;;;;;;13.65;8.07;;;9.00;95.80;;;;;;5029150;28;20398;-87
2020/12/15 02:51:59;;;;;;;11.43;7.57;;;9.00;95.80;;;;;;5028000;28;20492;-88
2020/12/15 02:54:24;;;;;;;8.00;6.05;;;9.00;95.80;;;;;;5029951;28;20029;-89
2020/12/15 02:56:50;;;;;;;14.18;6.38;;;9.00;95.80;;;;;;5029112;28;20030;-89
2020/12/15 02:59:15;;;;;;;12.65;7.10;;;9.00;95.80;;;;;;5029273;28;20025;-89
2020/12/15 03:01:43;;;;;;;8.73;5.85;;;9.00;95.80;;;;;;5027942;28;20490;-89
2020/12/15 03:04:09;;;;;;;10.05;6.45;;;9.10;95.80;;;;;;5030138;28;20021;-89
2020/12/15 03:06:35;;;;;;;8.73;6.47;;;9.10;95.80;;;;;;5032064;28;20034;-89
2020/12/15 03:09:01;;;;;;;10.40;6.13;;;9.00;95.80;;;;;;5029106;28;20026;-90
2020/12/15 03:11:27;;;;;;;10.80;6.50;;;9.00;95.80;;;;;;5029837;28;20037;-90
2020/12/15 03:13:52;;;;;;;9.35;5.85;;;9.10;95.80;;;;;;5021561;28;20021;-90
2020/12/15 03:16:18;;;;;;;11.32;6.97;;;9.10;95.90;;;;;;5033428;28;20080;-89
2020/12/15 03:18:44;;;;;;;10.60;5.95;;;9.10;95.90;;;;;;5033119;28;20379;-89
2020/12/15 03:21:12;;;;;;;10.90;6.85;;;9.10;95.90;;;;;;5031572;28;20080;-89
2020/12/15 03:23:38;;;;;;;9.98;6.13;;;9.10;95.90;;;;;;5031483;28;20466;-89
2020/12/15 03:26:03;;;;;;;12.88;6.70;;;9.10;95.90;;;;;;5028241;28;20041;-90
2020/12/15 03:28:29;;;;;;;13.45;6.30;;;9.20;95.90;;;;;;5028706;28;20037;-89
2020/12/15 03:30:54;;;;;;;13.05;7.40;;;9.10;95.90;;;;;;5031791;28;20511;-89
2020/12/15 03:33:20;;;;;;;8.60;5.70;;;9.10;95.90;;;;;;5030886;28;20029;-89
2020/12/15 03:35:45;;;;;;;7.82;5.05;;;9.10;95.90;;;;;;5032086;28;20520;-89
2020/12/15 03:38:11;;;;;;;12.38;5.28;;;9.10;95.90;;;;;;5031461;28;20079;-89
2020/12/15 03:40:37;;;;;;;9.63;5.82;;;9.10;95.90;;;;;;5027880;28;20038;-89
2020/12/15 03:43:03;;;;;;;9.30;5.03;;;9.10;96.00;;;;;;5030549;28;20494;-89
2020/12/15 03:45:29;;;;;;;7.20;5.25;;;9.10;95.90;;;;;;5026898;28;20033;-89
2020/12/15 03:47:55;;;;;;;6.90;5.30;;;9.20;95.90;;;;;;5028128;28;20022;-89
2020/12/15 03:50:21;;;;;;;6.28;5.05;;;9.20;95.90;;;;;;5029755;28;20029;-89
2020/12/15 03:52:46;;;;;;;7.13;4.97;;;9.20;95.90;;;;;;5030361;28;20071;-89
2020/12/15 03:55:12;;;;;;;8.80;5.35;;;9.20;95.90;;;;;;5028128;28;20037;-89
2020/12/15 03:57:37;;;;;;;9.57;5.60;;;9.20;95.80;;;;;;5023991;28;20057;-89
2020/12/15 04:00:05;;;;;;;7.70;5.55;;;9.20;95.80;;;;;;5027196;28;20029;-89
2020/12/15 04:02:31;;;;;;;8.10;4.93;;;9.20;95.80;;;;;;5027518;28;20025;-88
2020/12/15 04:04:56;;;;;;;8.60;5.57;;;9.20;95.80;;;;;;5026157;28;20037;-89
2020/12/15 04:07:22;;;;;;;8.85;4.88;;;9.30;95.80;;;;;;5030876;28;20030;-89
2020/12/15 04:09:47;;;;;;;7.47;4.43;;;9.20;95.70;;;;;;5025784;28;20394;-87
2020/12/15 04:12:13;;;;;;;7.13;4.90;;;9.20;95.70;;;;;;5024233;28;20478;-87
2020/12/15 04:14:40;;;;;;;8.27;5.18;;;9.20;95.70;;;;;;5031022;28;20112;-89
2020/12/15 04:17:06;;;;;;;7.32;5.28;;;9.20;95.70;;;;;;5027435;28;20044;-87
2020/12/15 04:19:31;;;;;;;8.48;4.70;;;9.20;95.70;;;;;;5034493;28;20075;-89
2020/12/15 04:21:57;;;;;;;9.25;4.68;;;9.20;95.70;;;;;;5037359;28;20397;-89
2020/12/15 04:24:22;;;;;;;13.55;6.03;;;9.20;95.70;;;;;;5032546;28;20543;-89
2020/12/15 04:26:48;;;;;;;9.70;5.50;;;9.20;95.70;;;;;;5033492;28;20508;-89
2020/12/15 04:29:13;;;;;;;7.63;5.22;;;9.20;95.70;;;;;;5032975;28;20017;-87
2020/12/15 04:31:39;;;;;;;9.40;5.28;;;9.30;95.70;;;;;;5035182;28;20067;-88
2020/12/15 04:34:05;;;;;;;7.13;5.03;;;9.20;95.60;;;;;;5033203;28;20029;-88
2020/12/15 04:36:30;;;;;;;8.13;4.90;;;9.20;95.70;;;;;;5033901;28;20033;-88
2020/12/15 04:38:56;;;;;;;9.00;4.95;;;9.20;95.60;;;;;;5042443;28;20033;-88
2020/12/15 04:41:22;;;;;;;8.73;5.22;;;9.20;95.60;;;;;;5033847;28;20128;-88
2020/12/15 04:43:48;;;;;;;8.70;5.32;;;9.20;95.60;;;;;;5035279;28;20050;-88
2020/12/15 04:46:18;;;;;;;9.68;4.88;;;9.20;95.60;;;;;;5034428;28;20055;-88
2020/12/15 04:48:59;;;;;;;9.77;5.60;;;9.10;95.60;;;;;;5026373;28;20030;-88
2020/12/15 04:51:27;;;;;;;12.02;5.03;;;9.10;95.60;;;;;;5029225;28;20075;-88
2020/12/15 04:53:54;;;;;;;10.90;5.43;;;9.00;95.60;;;;;;5034110;28;20037;-88
2020/12/15 04:56:29;;;;;;;7.43;5.22;;;9.00;95.60;;;;;;5034685;28;20029;-88
2020/12/15 04:58:59;;;;;;;8.85;5.28;;;9.00;95.60;;;;;;5032622;28;21582;-89
2020/12/15 05:01:26;;;;;;;11.73;5.88;;;9.00;95.70;;;;;;5029465;28;20033;-88
2020/12/15 05:03:53;;;;;;;9.80;5.63;;;8.90;95.70;;;;;;5032835;28;20068;-89
2020/12/15 05:06:27;;;;;;;8.55;4.72;;;9.00;95.70;;;;;;5031660;28;20033;-89
2020/12/15 05:08:53;;;;;;;9.65;5.38;;;8.90;95.70;;;;;;5026059;28;20024;-89
2020/12/15 05:11:19;;;;;;;11.45;5.30;;;8.90;95.70;;;;;;5030144;28;20037;-89
2020/12/15 05:13:45;;;;;;;9.50;5.28;;;8.90;95.70;;;;;;5031032;28;20397;-88
2020/12/15 05:16:10;;;;;;;8.48;5.57;;;8.90;95.70;;;;;;5031174;28;20141;-88
2020/12/15 05:18:36;;;;;;;8.40;5.75;;;8.90;95.80;;;;;;5033123;28;20017;-88
2020/12/15 05:21:15;;;;;;;11.75;6.68;;;8.90;95.80;;;;;;5034695;28;20047;-89
2020/12/15 05:23:49;;;;;;;9.57;5.95;;;8.90;95.70;;;;;;5018613;28;20025;-89
2020/12/15 05:26:25;;;;;;;9.32;6.15;;;8.90;95.80;;;;;;5031887;28;20030;-89
2020/12/15 05:29:07;;;;;;;11.27;5.90;;;8.90;95.80;;;;;;5023521;28;20026;-87
2020/12/15 05:31:39;;;;;;;8.85;6.05;;;8.90;95.80;;;;;;5043879;28;20386;-88
2020/12/15 05:34:05;;;;;;;10.13;5.77;;;8.90;95.80;;;;;;5026996;28;20045;-87
2020/12/15 05:36:31;;;;;;;10.07;5.95;;;8.90;95.80;;;;;;5030863;28;20025;-87
2020/12/15 05:39:05;;;;;;;12.02;6.10;;;8.90;95.80;;;;;;5028509;28;20029;-87
2020/12/15 05:41:32;;;;;;;8.25;5.75;;;8.90;95.80;;;;;;5025593;28;20030;-86
2020/12/15 05:43:58;;;;;;;8.20;5.28;;;8.90;95.80;;;;;;5029210;28;20060;-87
2020/12/15 05:46:27;;;;;;;7.45;5.68;;;8.90;95.80;;;;;;5031701;28;20029;-87
2020/12/15 05:49:03;;;;;;;12.10;6.18;;;8.90;95.70;;;;;;5024989;28;20038;-87
2020/12/15 05:51:42;;;;;;;9.90;5.43;;;8.90;95.70;;;;;;5039953;28;20033;-88
2020/12/15 05:54:12;;;;;;;12.88;6.22;;;8.90;95.70;;;;;;5022796;28;20124;-88
2020/12/15 05:56:39;;;;;;;9.10;6.00;;;8.90;95.70;;;;;;5029962;28;20509;-88
2020/12/15 05:59:19;;;;;;;11.20;5.75;;;8.90;95.70;;;;;;5027604;28;20565;-88
2020/12/15 06:01:50;;;;;;;10.18;6.05;;;8.90;95.70;;;;;;5025745;28;20437;-88
2020/12/15 06:04:17;;;;;;;9.68;5.95;;;8.90;95.70;;;;;;5031737;28;20558;-87
2020/12/15 06:06:44;;;;;;;11.75;6.97;;;8.90;95.70;;;;;;5029269;28;20029;-88
2020/12/15 06:09:16;;;;;;;10.20;6.40;;;8.90;95.70;;;;;;5027038;28;20029;-87
2020/12/15 06:11:44;;;;;;;14.73;8.02;;;8.90;95.70;;;;;;5031635;28;20041;-87
2020/12/15 06:14:10;;;;;;;14.80;6.03;;;8.90;95.70;;;;;;5032173;28;20112;-87
2020/12/15 06:16:37;;;;;;;13.10;6.60;;;8.90;95.70;;;;;;5036905;28;20374;-87
2020/12/15 06:19:07;;;;;;;10.77;6.35;;;8.90;95.70;;;;;;5033212;28;20026;-87
2020/12/15 06:21:34;;;;;;;11.15;5.68;;;8.90;95.70;;;;;;5026703;28;20065;-88
2020/12/15 06:24:04;;;;;;;9.88;6.43;;;8.90;95.70;;;;;;5021343;28;20029;-87
2020/12/15 06:26:32;;;;;;;10.38;5.78;;;8.90;95.70;;;;;;5024446;28;20017;-86
2020/12/15 06:29:00;;;;;;;9.95;6.45;;;8.80;95.70;;;;;;5035046;28;20129;-87
2020/12/15 06:31:26;;;;;;;10.10;6.10;;;8.90;95.80;;;;;;5022317;28;20120;-88
2020/12/15 06:34:02;;;;;;;9.32;6.10;;;8.80;95.80;;;;;;5046712;28;20105;-88
2020/12/15 06:36:30;;;;;;;15.25;6.55;;;8.80;95.70;;;;;;5032893;28;20067;-88
2020/12/15 06:38:57;;;;;;;12.20;7.10;;;8.90;95.80;;;;;;5033352;28;20036;-88
2020/12/15 06:41:24;;;;;;;11.85;6.90;;;8.90;95.80;;;;;;5030587;28;20033;-89
2020/12/15 06:43:50;;;;;;;10.18;6.72;;;8.90;95.80;;;;;;5033311;28;20048;-89
2020/12/15 06:46:25;;;;;;;10.02;6.65;;;8.90;95.80;;;;;;5033183;28;20029;-88
2020/12/15 06:48:53;;;;;;;10.40;6.30;;;8.90;95.80;;;;;;5031543;28;20072;-89
2020/12/15 06:51:32;;;;;;;12.40;7.05;;;8.80;95.80;;;;;;5030304;28;20021;-90
2020/12/15 06:54:00;;;;;;;8.70;6.05;;;8.90;95.80;;;;;;5037463;28;20040;-90
2020/12/15 06:56:29;;;;;;;12.70;5.85;;;8.90;95.80;;;;;;5032378;28;20155;-89
2020/12/15 06:59:06;;;;;;;11.45;7.00;;;8.90;95.90;;;;;;5032726;28;20390;-90
2020/12/15 07:01:33;;;;;;;11.80;7.53;;;8.90;95.90;;;;;;5030962;28;20026;-89
2020/12/15 07:04:03;;;;;;;9.40;6.80;;;8.90;95.90;;;;;;5032009;28;20455;-89
2020/12/15 07:06:29;;;;;;;14.52;7.70;;;8.90;95.90;;;;;;5017675;28;20037;-88
2020/12/15 07:09:08;;;;;;;15.80;7.43;;;8.80;95.80;;;;;;5029472;28;20021;-88
2020/12/15 07:11:34;;;;;;;9.40;7.00;;;8.80;95.80;;;;;;5030007;28;20030;-87
2020/12/15 07:14:02;;;;;;;10.60;7.30;;;8.80;95.90;;;;;;5031572;28;20040;-88
2020/12/15 07:16:28;;;;;;;12.48;6.97;;;8.90;95.90;;;;;;5032988;28;20048;-88
2020/12/15 07:18:54;;;;;;;14.00;8.07;;;8.80;95.90;;;;;;5023776;28;20030;-88
2020/12/15 07:21:28;;;;;;;11.98;7.38;;;8.80;95.90;;;;;;5027781;28;20063;-89
2020/12/15 07:23:55;;;;;;;13.85;8.02;;;8.80;95.90;;;;;;5032005;28;20474;-87
2020/12/15 07:26:20;;;;;;;11.25;7.10;;;8.80;95.90;;;;;;5030823;28;20035;-88
2020/12/15 07:28:48;;;;;;;14.73;7.47;;;8.80;96.00;;;;;;5032456;28;20116;-88
2020/12/15 07:31:25;;;;;;;13.82;8.38;;;8.80;96.00;;;;;;5032379;28;20116;-88
2020/12/15 07:33:50;;;;;;;11.85;8.15;;;8.80;96.00;;;;;;5031318;28;20033;-88
2020/12/15 07:36:17;;;;;;;15.57;7.97;;;8.80;96.00;;;;;;5028785;28;20026;-88
2020/12/15 07:38:46;;;;;;;15.18;8.13;;;8.90;96.00;;;;;;5032476;28;20028;-89
2020/12/15 07:41:13;;;;;;;16.55;8.50;;;8.80;96.00;;;;;;5031130;28;20091;-90
2020/12/15 07:43:40;;;;;;;13.00;9.02;;;8.80;96.00;;;;;;5018892;28;20053;-88
2020/12/15 07:46:15;;;;;;;10.93;7.78;;;8.80;96.00;;;;;;5013935;28;20030;-88
2020/12/15 07:48:41;;;;;;;11.88;7.78;;;8.90;96.00;;;;;;5032456;28;20029;-86
2020/12/15 07:51:07;;;;;;;12.15;7.97;;;8.80;96.10;;;;;;5032536;28;20034;-89
2020/12/15 07:53:32;;;;;;;12.25;7.90;;;8.80;96.10;;;;;;5033822;28;20025;-89
2020/12/15 07:56:10;;;;;;;10.00;7.35;;;8.80;96.10;;;;;;5030642;28;20030;-89
2020/12/15 07:58:36;;;;;;;10.75;7.90;;;8.80;96.10;;;;;;5032066;28;20112;-89
2020/12/15 08:01:03;;;;;;;12.80;8.38;;;8.80;96.10;;;;;;5035128;28;20037;-87
2020/12/15 08:03:28;;;;;;;11.57;7.78;;;8.70;96.10;;;;;;5037551;28;20040;-89
2020/12/15 08:05:54;;;;;;;13.00;7.63;;;8.80;96.10;;;;;;5035849;28;20481;-89
2020/12/15 08:08:20;;;;;;;11.45;8.40;;;8.80;96.40;;;;;;5036179;28;20018;-89
2020/12/15 08:10:46;;;;;;;15.68;8.80;;;8.80;96.20;;;;;;5035702;28;20026;-88
2020/12/15 08:13:12;;;;;;;15.65;9.18;;;8.80;96.20;;;;;;5033154;28;20075;-88
2020/12/15 08:15:39;;;;;;;11.98;8.77;;;8.80;96.30;;;;;;5036850;28;20025;-89
2020/12/15 08:18:11;;;;;;;11.32;8.32;;;8.90;96.30;;;;;;5035936;28;20022;-89
2020/12/15 08:20:38;;;;;;;13.15;8.02;;;8.90;96.20;;;;;;5035781;28;20498;-88
2020/12/15 08:23:08;;;;;;;10.75;7.90;;;8.90;96.20;;;;;;5035618;28;20040;-89
2020/12/15 08:25:35;;;;;;;12.95;9.00;;;8.90;96.20;;;;;;5020789;28;20026;-89
2020/12/15 08:28:21;;;;;;;11.35;8.23;;;9.00;96.20;;;;;;5033660;28;20017;-89
2020/12/15 08:30:48;;;;;;;11.98;8.45;;;9.00;96.20;;;;;;5033635;28;20080;-89
2020/12/15 08:33:25;;;;;;;14.13;8.75;;;9.00;96.20;;;;;;5027642;28;20026;-89
2020/12/15 08:35:52;;;;;;;13.50;8.65;;;9.00;96.20;;;;;;5024269;28;20031;-88
2020/12/15 08:38:19;;;;;;;13.63;9.52;;;9.00;96.30;;;;;;5036137;28;20048;-89
2020/12/15 08:40:58;;;;;;;12.88;9.40;;;9.10;96.30;;;;;;5033479;28;20030;-87
2020/12/15 08:43:24;;;;;;;11.32;9.05;;;9.10;96.30;;;;;;4929606;28;20046;-87
2020/12/15 08:45:51;;;;;;;13.48;9.93;;;9.10;96.30;;;;;;4996403;28;20030;-89
2020/12/15 08:48:18;;;;;;;13.98;9.40;;;9.10;96.30;;;;;;4995374;28;20034;-89
2020/12/15 08:50:45;;;;;;;13.75;9.65;;;9.20;96.30;;;;;;4996212;28;20029;-89
2020/12/15 08:53:11;;;;;;;16.38;10.15;;;9.20;96.20;;;;;;4996032;28;20030;-89
2020/12/15 08:55:40;;;;;;;13.57;9.30;;;9.20;96.20;;;;;;4995075;28;20043;-89
2020/12/15 08:58:08;;;;;;;13.68;9.05;;;9.30;96.20;;;;;;4993954;28;20027;-89
2020/12/15 09:00:36;;;;;;;16.10;9.93;;;9.20;96.20;;;;;;4995945;28;20125;-88
2020/12/15 09:03:16;;;;;;;13.13;9.98;;;9.30;96.20;;;;;;4977935;28;20522;-88
2020/12/15 09:05:50;;;;;;;13.15;9.85;;;9.30;96.20;;;;;;4995288;28;20038;-88
2020/12/15 09:08:17;;;;;;;14.40;10.02;;;9.30;96.20;;;;;;4995520;28;20427;-89
2020/12/15 09:10:43;;;;;;;13.52;10.63;;;9.30;96.20;;;;;;4995831;28;20064;-89
2020/12/15 09:13:09;;;;;;;19.75;10.77;;;9.30;96.30;;;;;;4994293;28;20026;-87
2020/12/15 09:15:48;;;;;;;14.70;9.77;;;9.40;96.30;;;;;;4990530;28;20026;-89
2020/12/15 09:18:15;;;;;;;15.02;10.63;;;9.40;96.20;;;;;;4987396;28;20026;-89
2020/12/15 09:20:41;;;;;;;16.90;9.70;;;9.40;96.30;;;;;;4980459;28;20542;-89
2020/12/15 09:23:07;;;;;;;14.32;10.10;;;9.40;96.30;;;;;;4993841;28;20065;-88
2020/12/15 09:25:33;;;;;;;12.75;9.65;;;9.50;96.20;;;;;;4999320;28;20065;-88
2020/12/15 09:27:58;;;;;;;18.80;10.48;;;9.50;96.20;;;;;;4984216;28;20036;-86
2020/12/15 09:30:24;;;;;;;15.63;11.00;;;9.50;96.20;;;;;;5010503;28;20422;-89
2020/12/15 09:32:49;;;;;;;14.68;10.80;;;9.50;96.20;;;;;;4995151;28;20030;-88
2020/12/15 09:35:15;;;;;;;20.38;11.38;;;9.60;96.20;;;;;;4995219;28;20030;-88
2020/12/15 09:37:41;;;;;;;13.85;10.75;;;9.50;96.10;;;;;;4989736;28;20395;-89
2020/12/15 09:40:09;;;;;;;16.30;10.18;;;9.60;96.10;;;;;;4995388;28;20030;-89
2020/12/15 09:42:43;;;;;;;15.63;9.35;;;9.60;96.10;;;;;;4994423;28;20050;-89
2020/12/15 09:45:08;;;;;;;13.43;10.00;;;9.60;96.10;;;;;;4994274;28;20046;-88
2020/12/15 09:47:39;;;;;;;12.32;9.70;;;9.60;96.10;;;;;;4996247;28;20030;-88
2020/12/15 09:50:04;;;;;;;13.88;10.57;;;9.60;96.10;;;;;;4994603;28;20033;-88
2020/12/15 09:52:30;;;;;;;13.18;10.23;;;9.70;96.10;;;;;;4995003;28;20022;-88
2020/12/15 09:54:55;;;;;;;14.52;9.80;;;9.70;96.10;;;;;;4995967;28;20033;-89
2020/12/15 09:57:21;;;;;;;13.55;9.02;;;9.70;96.10;;;;;;4994513;28;20026;-88
2020/12/15 09:59:46;;;;;;;16.83;9.90;;;9.70;96.10;;;;;;4994576;28;20034;-88
2020/12/15 10:02:12;;;;;;;13.57;9.48;;;9.70;96.00;;;;;;4994795;28;20022;-88
2020/12/15 10:04:38;;;;;;;13.50;10.05;;;9.70;96.00;;;;;;4979470;28;20027;-88
2020/12/15 10:07:03;;;;;;;14.27;10.23;;;9.70;96.00;;;;;;4982817;28;20499;-88
2020/12/15 10:09:29;;;;;;;14.27;9.68;;;9.70;96.00;;;;;;4996269;28;20026;-88
2020/12/15 10:11:54;;;;;;;12.90;10.40;;;9.70;96.00;;;;;;4995260;28;20222;-89
2020/12/15 10:14:20;;;;;;;16.60;10.30;;;9.80;96.00;;;;;;4987065;28;20030;-88
2020/12/15 10:16:45;;;;;;;16.02;9.80;;;9.80;96.00;;;;;;4983376;28;20023;-88
2020/12/15 10:19:11;;;;;;;14.30;9.93;;;9.80;96.00;;;;;;4995323;28;20486;-88
2020/12/15 10:21:37;;;;;;;12.52;8.85;;;9.80;96.00;;;;;;4993548;28;20045;-88
2020/12/15 10:24:03;;;;;;;11.77;8.63;;;9.80;96.00;;;;;;4993747;28;20065;-88
2020/12/15 10:26:29;;;;;;;11.50;8.57;;;9.80;96.00;;;;;;4989353;28;20038;-88
2020/12/15 10:28:56;;;;;;;14.98;10.35;;;9.90;95.90;;;;;;4991766;28;20026;-88
2020/12/15 10:31:22;;;;;;;11.55;8.80;;;9.90;96.00;;;;;;4990549;28;20487;-88
2020/12/15 10:33:47;;;;;;;11.65;9.05;;;9.90;95.90;;;;;;4993839;28;20085;-88
2020/12/15 10:36:14;;;;;;;12.98;9.02;;;9.90;95.80;;;;;;4992755;28;20031;-88
2020/12/15 10:38:40;;;;;;;12.77;8.93;;;9.90;95.90;;;;;;4991050;28;20470;-87
2020/12/15 10:41:07;;;;;;;11.13;8.43;;;9.90;95.80;;;;;;4979158;28;20046;-88
2020/12/15 10:43:33;;;;;;;11.52;9.30;;;10.00;95.90;;;;;;4989291;28;20038;-89
2020/12/15 10:45:59;;;;;;;13.98;9.75;;;9.90;95.80;;;;;;4989693;28;20037;-87
2020/12/15 10:48:25;;;;;;;14.70;9.00;;;9.90;95.80;;;;;;4991720;28;20022;-87
2020/12/15 10:50:51;;;;;;;11.80;8.90;;;10.00;95.80;;;;;;4984501;28;20031;-88
2020/12/15 10:53:17;;;;;;;14.20;9.88;;;10.00;95.80;;;;;;4992329;28;20033;-88
2020/12/15 10:55:43;;;;;;;16.85;9.27;;;10.00;95.90;;;;;;4994186;28;20025;-88
2020/12/15 10:58:09;;;;;;;15.93;10.43;;;10.00;95.80;;;;;;4993842;28;20050;-88
2020/12/15 11:00:34;;;;;;;12.10;8.88;;;10.00;95.90;;;;;;4989008;28;20050;-88
2020/12/15 11:03:00;;;;;;;12.45;9.48;;;10.10;95.90;;;;;;4985136;28;20023;-88
2020/12/15 11:05:25;;;;;;;13.90;9.63;;;10.10;95.80;;;;;;4984203;28;20113;-86
2020/12/15 11:07:51;;;;;;;12.30;8.93;;;10.10;95.80;;;;;;4989505;28;20014;-87
2020/12/15 11:10:16;;;;;;;14.65;10.35;;;10.20;95.80;;;;;;4975731;28;20475;-87
2020/12/15 11:12:42;;;;;;;16.33;11.23;;;10.20;95.80;;;;;;4982928;28;20459;-88
2020/12/15 11:15:07;;;;;;;14.13;10.38;;;10.20;95.80;;;;;;4993137;28;20402;-88
2020/12/15 11:17:33;;;;;;;14.95;11.15;;;10.20;95.70;;;;;;4993295;28;20018;-87
2020/12/15 11:19:58;;;;;;;16.48;12.48;;;10.20;95.70;;;;;;4993082;28;20095;-88
2020/12/15 11:22:24;;;;;;;22.90;16.45;;;10.20;95.60;;;;;;5008527;28;20041;-88
2020/12/15 11:24:49;;;;;;;17.88;13.73;;;10.20;95.60;;;;;;4993695;28;20023;-87
2020/12/15 11:27:15;;;;;;;18.65;14.85;;;10.20;95.70;;;;;;4993113;28;20117;-87
2020/12/15 11:29:42;;;;;;;22.95;14.65;;;10.20;95.60;;;;;;4988079;28;20495;-86
2020/12/15 11:32:08;;;;;;;18.52;13.60;;;10.20;95.60;;;;;;4981751;28;20027;-88
2020/12/15 11:34:33;;;;;;;19.25;13.43;;;10.20;95.60;;;;;;4985009;28;20033;-85
2020/12/15 11:36:59;;;;;;;20.50;13.48;;;10.20;95.70;;;;;;4985323;28;20034;-88
2020/12/15 11:39:25;;;;;;;20.55;14.35;;;10.20;95.70;;;;;;4990834;28;20105;-88
2020/12/15 11:41:51;;;;;;;23.35;13.57;;;10.20;95.60;;;;;;4984411;28;20034;-88
2020/12/15 11:44:18;;;;;;;16.02;13.23;;;10.20;95.60;;;;;;4992312;28;20057;-88
2020/12/15 11:46:47;;;;;;;16.10;13.10;;;10.20;95.60;;;;;;4988951;28;20022;-87
2020/12/15 11:49:13;;;;;;;18.08;13.77;;;10.20;95.60;;;;;;4982216;28;20383;-87
2020/12/15 11:51:38;;;;;;;18.48;12.65;;;10.20;95.60;;;;;;4988074;28;20030;-86
2020/12/15 11:54:04;;;;;;;21.58;14.23;;;10.20;95.60;;;;;;4978081;28;20026;-86
2020/12/15 11:56:30;;;;;;;19.58;13.23;;;10.20;95.60;;;;;;4992815;28;20022;-87
2020/12/15 11:58:55;;;;;;;15.52;12.20;;;10.20;95.60;;;;;;4983892;28;20058;-88
2020/12/15 12:01:21;;;;;;;16.45;13.20;;;10.30;95.70;;;;;;4987331;28;20035;-87
2020/12/15 12:03:47;;;;;;;16.20;12.90;;;10.30;95.70;;;;;;4981858;28;20062;-87
2020/12/15 12:06:12;;;;;;;18.13;13.68;;;10.30;95.60;;;;;;4980354;28;20395;-87
2020/12/15 12:08:38;;;;;;;19.02;14.02;;;10.20;95.60;;;;;;4984429;28;20026;-87
2020/12/15 12:11:03;;;;;;;16.48;12.32;;;10.30;95.60;;;;;;4980682;28;20037;-88
2020/12/15 12:13:29;;;;;;;14.05;11.48;;;10.30;95.60;;;;;;4984785;28;20023;-87
2020/12/15 12:15:55;;;;;;;17.40;12.23;;;10.20;95.60;;;;;;4983478;28;20023;-87
2020/12/15 12:18:20;;;;;;;16.92;11.95;;;10.20;95.60;;;;;;4984406;28;20113;-87
2020/12/15 12:20:46;;;;;;;15.80;12.13;;;10.20;95.60;;;;;;4985491;28;20030;-87
2020/12/15 12:23:12;;;;;;;16.98;12.68;;;10.20;95.60;;;;;;4980438;28;20022;-87
2020/12/15 12:25:37;;;;;;;16.65;10.95;;;10.30;95.60;;;;;;4975487;28;20438;-87
2020/12/15 12:28:03;;;;;;;16.33;12.95;;;10.20;95.60;;;;;;4989591;28;20550;-88
2020/12/15 12:30:28;;;;;;;17.67;12.13;;;10.30;95.70;;;;;;4981852;28;20101;-87
2020/12/15 12:32:54;;;;;;;16.77;13.02;;;10.30;95.70;;;;;;4984637;28;20042;-86
2020/12/15 12:35:20;;;;;;;14.25;11.75;;;10.30;95.70;;;;;;4984106;28;20026;-88
2020/12/15 12:37:46;;;;;;;19.02;12.23;;;10.30;95.70;;;;;;4988803;28;20506;-88
2020/12/15 12:40:11;;;;;;;16.50;12.68;;;10.30;95.70;;;;;;4990086;28;20031;-87
2020/12/15 12:42:38;;;;;;;16.48;11.73;;;10.30;95.70;;;;;;4992138;28;20121;-87
2020/12/15 12:45:04;;;;;;;17.65;12.60;;;10.30;95.70;;;;;;4984790;28;20069;-87